Badan Meteorologi, Klimatologi, dan Geofisika

CUACA TERKINI BANDARA KUALANAMU

Senin, 25 Maret 2019 05:03 UTC

Cuaca : Guntur dan hujan ringan

Angin : (dari) Barat Daya, 18.5 km/jam

Jarak Pandang : 1.5 km

Suhu : 25 °C

Waktu Pengamatan : 12:00 WIB

Selengkapnya>>>

DATA METEOROLOGI KUALANAMU

Data Metar Terbaru

WIMM 250500Z 23010KT 1500 R05/1000 R23/P2000 -TSRA FEW016CB BKN017 25/24 Q1011 NOSIG=

WIMM 250400Z 28006KT 270V330 2000 -TSRA FEW016CB BKN017 26/26 Q1012 NOSIG=

WIMM 250300Z 30003KT 3000 -TSRA FEW016CB BKN017 26/24 Q1011 NOSIG=

TAF WIMM 250500Z 2506/2606 36005KT 7000 FEW016CB BKN017 TEMPO 2506/2508 25010KT 3000 -TSRA BECMG 2512/2514 26005KT 4000 HZ =

Selengkapnya>>>

Data TAF Terbaru

TAF WIMM 250500Z 2506/2606 36005KT 7000 FEW016CB BKN017 TEMPO 2506/2508 25010KT 3000 -TSRA BECMG 2512/2514 26005KT 4000 HZ =

Selengkapnya>>>

CITRA SATELIT

Enhanced
Citra Satelit
Cloud Type
Citra Satelit IR
Hotspot
Citra Satelit
Sebaran Asap
Citra Satelit